Time;durP1;ratioP1;P1;durP2;ratioP2;P2;SDS_P1;SDS_P2;PMS_P1;PMS_P2;Temp;Humidity;BMP_temperature;BMP_pressure;BME280_temperature;BME280_humidity;BME280_pressure;Samples;Min_cycle;Max_cycle;Signal;HPM_P1;HPM_P2
2020/12/31 00:02:14;;;;;;;7.00;5.75;;;4.00;99.90;;;;;;5092417;28;20023;-67
2020/12/31 00:04:41;;;;;;;9.38;6.40;;;4.00;99.90;;;;;;5093395;28;20459;-67
2020/12/31 00:07:07;;;;;;;7.10;6.40;;;4.00;99.90;;;;;;5093138;28;20408;-68
2020/12/31 00:09:34;;;;;;;10.13;7.18;;;4.00;99.90;;;;;;5090782;28;20023;-68
2020/12/31 00:11:59;;;;;;;7.88;6.43;;;4.00;99.90;;;;;;5092268;28;20475;-68
2020/12/31 00:14:25;;;;;;;8.27;6.63;;;4.00;99.90;;;;;;5093013;28;20031;-67
2020/12/31 00:16:50;;;;;;;11.65;8.18;;;4.00;99.90;;;;;;5092758;28;20047;-67
2020/12/31 00:19:16;;;;;;;12.35;9.55;;;4.10;99.90;;;;;;5092704;28;20019;-67
2020/12/31 00:21:41;;;;;;;11.10;8.85;;;4.10;99.90;;;;;;5093269;28;20028;-68
2020/12/31 00:24:08;;;;;;;8.50;7.25;;;4.10;99.90;;;;;;5092473;28;20122;-68
2020/12/31 00:26:33;;;;;;;8.45;6.47;;;4.20;99.90;;;;;;5092875;28;20085;-68
2020/12/31 00:28:59;;;;;;;5.05;4.65;;;4.20;99.90;;;;;;5093218;28;20020;-68
2020/12/31 00:31:24;;;;;;;5.78;3.38;;;4.10;99.90;;;;;;5092368;28;20024;-69
2020/12/31 00:33:50;;;;;;;4.60;3.25;;;4.00;99.90;;;;;;5092635;28;20535;-68
2020/12/31 00:36:16;;;;;;;2.92;2.40;;;4.00;99.90;;;;;;5092982;28;20047;-68
2020/12/31 00:38:41;;;;;;;2.35;2.03;;;3.90;99.90;;;;;;5092599;28;20442;-68
2020/12/31 00:41:07;;;;;;;2.55;1.95;;;3.90;99.90;;;;;;5093186;28;20028;-68
2020/12/31 00:43:32;;;;;;;2.85;2.00;;;3.90;99.90;;;;;;5092548;28;20035;-68
2020/12/31 00:45:58;;;;;;;4.57;1.73;;;3.90;99.90;;;;;;5091868;28;20024;-68
2020/12/31 00:48:24;;;;;;;5.35;2.00;;;3.80;99.90;;;;;;5090123;28;20448;-68
2020/12/31 00:50:50;;;;;;;4.15;2.22;;;3.80;99.90;;;;;;5079517;28;20028;-68
2020/12/31 00:53:15;;;;;;;2.95;2.08;;;3.80;99.90;;;;;;5092219;28;20895;-68
2020/12/31 00:55:41;;;;;;;6.50;2.80;;;3.90;99.90;;;;;;5092108;28;20118;-67
2020/12/31 00:58:06;;;;;;;3.38;2.80;;;3.80;99.90;;;;;;5091420;28;20028;-68
2020/12/31 01:00:33;;;;;;;3.22;2.17;;;3.80;99.90;;;;;;5091674;28;20020;-68
2020/12/31 01:02:59;;;;;;;3.67;2.60;;;3.90;99.90;;;;;;5092302;28;20063;-67
2020/12/31 01:05:25;;;;;;;3.92;3.00;;;3.80;99.90;;;;;;5090701;28;20472;-68
2020/12/31 01:07:53;;;;;;;4.97;3.17;;;3.90;99.90;;;;;;5092518;28;20040;-68
2020/12/31 01:10:19;;;;;;;5.75;3.25;;;3.90;99.90;;;;;;5091505;28;20028;-68
2020/12/31 01:12:44;;;;;;;4.80;3.40;;;3.90;99.90;;;;;;5090775;28;20048;-68
2020/12/31 01:15:10;;;;;;;5.15;4.32;;;3.90;99.90;;;;;;5092173;28;20030;-68
2020/12/31 01:17:35;;;;;;;5.85;4.15;;;3.90;99.90;;;;;;5091484;28;20353;-68
2020/12/31 01:20:01;;;;;;;6.60;4.43;;;3.90;99.90;;;;;;5091137;28;20464;-68
2020/12/31 01:22:27;;;;;;;7.47;5.07;;;3.90;99.90;;;;;;5091640;28;20031;-68
2020/12/31 01:24:52;;;;;;;6.93;4.90;;;4.00;99.90;;;;;;5092206;28;20421;-68
2020/12/31 01:27:18;;;;;;;7.70;6.47;;;4.00;99.90;;;;;;5071309;28;20016;-68
2020/12/31 01:29:44;;;;;;;11.02;7.55;;;4.00;99.90;;;;;;5071636;28;20349;-68
2020/12/31 01:32:10;;;;;;;11.40;8.43;;;4.00;99.90;;;;;;5071322;28;20036;-68
2020/12/31 01:34:36;;;;;;;12.63;10.23;;;4.00;99.90;;;;;;5070514;28;20443;-68
2020/12/31 01:37:02;;;;;;;14.43;10.57;;;4.00;99.90;;;;;;5071473;28;20142;-68
2020/12/31 01:39:29;;;;;;;14.25;10.93;;;4.10;99.90;;;;;;5071022;28;20035;-68
2020/12/31 01:42:01;;;;;;;16.02;13.23;;;4.10;99.90;;;;;;5070581;28;20031;-68
2020/12/31 01:44:26;;;;;;;14.70;11.38;;;4.10;99.90;;;;;;5070845;28;20017;-68
2020/12/31 01:46:53;;;;;;;18.08;12.88;;;4.10;99.90;;;;;;5071413;28;20066;-68
2020/12/31 01:49:20;;;;;;;19.27;11.98;;;4.10;99.90;;;;;;5069758;28;20489;-68
2020/12/31 01:51:47;;;;;;;18.63;11.52;;;4.10;99.90;;;;;;5087083;28;20032;-68
2020/12/31 01:54:20;;;;;;;18.25;12.00;;;4.10;99.90;;;;;;5090538;28;20134;-68
2020/12/31 01:56:48;;;;;;;20.60;11.88;;;4.10;99.90;;;;;;5091342;28;20032;-67
2020/12/31 01:59:16;;;;;;;18.42;12.13;;;4.20;99.90;;;;;;5091188;28;20073;-68
2020/12/31 02:01:42;;;;;;;14.95;11.77;;;4.10;99.90;;;;;;5090493;28;20476;-68
2020/12/31 02:04:07;;;;;;;15.93;11.70;;;4.10;99.90;;;;;;5091016;28;20036;-68
2020/12/31 02:06:34;;;;;;;18.48;12.52;;;4.10;99.90;;;;;;5090836;28;20031;-68
2020/12/31 02:08:59;;;;;;;16.38;11.57;;;4.10;99.90;;;;;;5090353;28;20083;-68
2020/12/31 02:11:25;;;;;;;12.98;11.38;;;4.10;99.90;;;;;;5090751;28;20032;-68
2020/12/31 02:13:54;;;;;;;17.60;12.25;;;4.10;99.90;;;;;;5090559;28;20056;-68
2020/12/31 02:16:28;;;;;;;15.98;12.30;;;4.20;99.90;;;;;;5090145;28;20043;-68
2020/12/31 02:18:55;;;;;;;16.38;11.20;;;4.20;99.90;;;;;;5091113;28;20048;-68
2020/12/31 02:21:24;;;;;;;15.00;12.38;;;4.10;99.90;;;;;;5090765;28;20028;-67
2020/12/31 02:23:50;;;;;;;16.77;11.55;;;4.10;99.90;;;;;;5090555;28;20074;-67
2020/12/31 02:26:16;;;;;;;17.95;12.55;;;4.20;99.90;;;;;;5090504;28;20024;-67
2020/12/31 02:28:41;;;;;;;13.85;11.50;;;4.20;99.90;;;;;;5090876;28;20378;-67
2020/12/31 02:31:07;;;;;;;15.65;11.38;;;4.10;99.90;;;;;;5090008;28;20008;-70
2020/12/31 02:33:32;;;;;;;18.13;11.43;;;4.10;99.90;;;;;;5090701;28;20032;-68
2020/12/31 02:35:58;;;;;;;18.63;14.07;;;4.20;99.90;;;;;;5091130;28;20468;-68
2020/12/31 02:38:24;;;;;;;18.30;12.73;;;4.20;99.90;;;;;;5089693;28;20069;-68
2020/12/31 02:40:50;;;;;;;19.73;12.77;;;4.20;99.90;;;;;;5090880;28;20082;-68
2020/12/31 02:43:15;;;;;;;8.60;6.68;;;4.20;99.90;;;;;;5090248;28;20024;-68
2020/12/31 02:45:40;;;;;;;7.07;5.35;;;4.20;99.90;;;;;;5090271;28;20472;-68
2020/12/31 02:48:06;;;;;;;5.07;4.63;;;4.20;99.90;;;;;;5090648;28;20213;-68
2020/12/31 02:50:32;;;;;;;4.35;3.88;;;4.10;99.90;;;;;;5075356;28;20028;-68
2020/12/31 02:52:57;;;;;;;3.20;2.90;;;4.10;99.90;;;;;;5090736;28;20032;-68
2020/12/31 02:55:23;;;;;;;3.00;2.70;;;4.00;99.90;;;;;;5090479;28;20482;-67
2020/12/31 02:57:48;;;;;;;2.40;2.20;;;4.00;99.90;;;;;;5093901;28;20027;-67
2020/12/31 03:00:14;;;;;;;2.55;2.35;;;3.90;99.90;;;;;;5094444;28;20028;-68
2020/12/31 03:02:39;;;;;;;2.47;2.28;;;3.80;99.90;;;;;;5094493;28;20024;-68
2020/12/31 03:05:05;;;;;;;3.33;2.30;;;3.80;99.90;;;;;;5093730;28;20028;-68
2020/12/31 03:07:30;;;;;;;2.88;2.20;;;3.70;99.90;;;;;;5094352;28;20092;-68
2020/12/31 03:09:56;;;;;;;3.55;2.35;;;3.80;99.90;;;;;;5087318;28;20048;-68
2020/12/31 03:12:21;;;;;;;2.40;2.08;;;3.70;99.90;;;;;;5092811;28;20401;-68
2020/12/31 03:14:47;;;;;;;2.80;2.25;;;3.70;99.90;;;;;;5094126;28;20028;-68
2020/12/31 03:17:12;;;;;;;2.88;2.58;;;3.70;99.90;;;;;;5079818;28;20517;-68
2020/12/31 03:19:38;;;;;;;2.78;2.58;;;3.60;99.90;;;;;;5079229;28;20016;-69
2020/12/31 03:22:03;;;;;;;2.70;2.47;;;3.60;99.90;;;;;;5094454;28;20022;-68
2020/12/31 03:24:29;;;;;;;3.70;3.38;;;3.60;99.90;;;;;;5093807;28;20024;-69
2020/12/31 03:26:54;;;;;;;3.10;2.85;;;3.60;99.90;;;;;;5086606;28;20415;-67
2020/12/31 03:29:20;;;;;;;3.58;3.15;;;3.50;99.90;;;;;;5086787;28;20430;-68
2020/12/31 03:31:45;;;;;;;3.40;2.90;;;3.50;99.90;;;;;;5094699;28;20062;-68
2020/12/31 03:34:11;;;;;;;3.65;3.35;;;3.50;99.90;;;;;;5093470;28;20479;-68
2020/12/31 03:36:36;;;;;;;4.60;3.53;;;3.50;99.90;;;;;;5093792;28;20550;-68
2020/12/31 03:39:02;;;;;;;4.30;3.90;;;3.50;99.90;;;;;;5093900;28;20503;-68
2020/12/31 03:41:28;;;;;;;3.80;3.42;;;3.50;99.90;;;;;;5092578;28;20032;-68
2020/12/31 03:43:53;;;;;;;4.32;3.50;;;3.50;99.90;;;;;;5087988;28;20418;-68
2020/12/31 03:46:19;;;;;;;4.43;4.00;;;3.50;99.90;;;;;;5085637;28;20533;-68
2020/12/31 03:48:44;;;;;;;6.13;4.20;;;3.40;99.90;;;;;;5093023;28;20030;-68
2020/12/31 03:51:10;;;;;;;4.80;4.20;;;3.50;99.90;;;;;;5093749;28;20024;-67
2020/12/31 03:53:35;;;;;;;5.15;4.70;;;3.50;99.90;;;;;;5093100;28;20387;-68
2020/12/31 03:56:01;;;;;;;6.40;5.03;;;3.40;99.90;;;;;;5092586;28;20380;-68
2020/12/31 03:58:26;;;;;;;5.63;5.03;;;3.40;99.90;;;;;;5093096;28;20455;-68
2020/12/31 04:00:52;;;;;;;5.13;4.63;;;3.50;99.90;;;;;;5092727;28;20012;-68
2020/12/31 04:03:18;;;;;;;5.80;5.20;;;3.40;99.90;;;;;;5093087;28;20099;-67
2020/12/31 04:05:43;;;;;;;6.18;5.57;;;3.40;99.90;;;;;;5092790;28;20401;-68
2020/12/31 04:08:09;;;;;;;6.88;6.18;;;3.40;99.90;;;;;;5091260;28;20035;-67
2020/12/31 04:10:34;;;;;;;7.10;6.50;;;3.40;99.90;;;;;;5092631;28;20066;-68
2020/12/31 04:13:00;;;;;;;7.53;6.82;;;3.40;99.90;;;;;;5092890;28;20071;-67
2020/12/31 04:15:25;;;;;;;9.52;6.78;;;3.50;99.90;;;;;;5092486;28;20115;-68
2020/12/31 04:17:51;;;;;;;7.20;6.50;;;3.40;99.90;;;;;;5088480;28;20013;-67
2020/12/31 04:20:16;;;;;;;8.10;7.05;;;3.40;99.90;;;;;;5083052;28;20119;-67
2020/12/31 04:22:42;;;;;;;8.73;7.18;;;3.40;99.90;;;;;;5092295;28;20028;-68
2020/12/31 04:25:07;;;;;;;9.07;8.05;;;3.50;99.90;;;;;;5093237;28;20031;-68
2020/12/31 04:27:33;;;;;;;10.93;9.40;;;3.40;99.90;;;;;;5092539;28;20456;-68
2020/12/31 04:29:58;;;;;;;11.35;9.35;;;3.50;99.90;;;;;;5092461;28;20031;-68
2020/12/31 04:32:24;;;;;;;12.55;9.65;;;3.40;99.90;;;;;;5092890;28;20108;-67
2020/12/31 04:34:49;;;;;;;12.05;9.95;;;3.50;99.90;;;;;;5092954;28;20410;-67
2020/12/31 04:37:15;;;;;;;12.73;10.27;;;3.40;99.90;;;;;;5092044;28;20039;-68
2020/12/31 04:39:40;;;;;;;15.48;11.45;;;3.50;99.90;;;;;;5092592;28;20069;-68
2020/12/31 04:42:06;;;;;;;13.38;11.98;;;3.40;99.90;;;;;;5092639;28;20035;-67
2020/12/31 04:44:32;;;;;;;17.02;12.43;;;3.40;99.90;;;;;;5091695;28;20348;-68
2020/12/31 04:46:58;;;;;;;16.45;11.70;;;3.50;99.90;;;;;;5092936;28;20106;-68
2020/12/31 04:49:28;;;;;;;17.58;11.45;;;3.40;99.90;;;;;;5092599;28;20020;-67
2020/12/31 04:51:55;;;;;;;;;;;3.50;99.90;;;;;;5092354;28;20484;-67
2020/12/31 04:54:21;;;;;;;15.77;12.23;;;3.50;99.90;;;;;;5092479;28;20249;-68
2020/12/31 04:56:47;;;;;;;14.77;12.10;;;3.50;99.90;;;;;;5093032;28;20024;-68
2020/12/31 04:59:12;;;;;;;21.35;13.57;;;3.40;99.90;;;;;;5091767;28;20555;-68
2020/12/31 05:01:41;;;;;;;17.00;12.65;;;3.40;99.90;;;;;;5092741;28;20549;-67
2020/12/31 05:04:07;;;;;;;20.02;13.20;;;3.40;99.90;;;;;;5091863;28;20031;-67
2020/12/31 05:06:36;;;;;;;17.45;12.65;;;3.40;99.90;;;;;;5092077;28;20020;-68
2020/12/31 05:09:15;;;;;;;18.20;13.27;;;3.40;99.90;;;;;;5092096;28;20050;-68
2020/12/31 05:11:45;;;;;;;18.38;13.23;;;3.40;99.90;;;;;;5091658;28;20027;-67
2020/12/31 05:14:10;;;;;;;20.30;14.02;;;3.40;99.90;;;;;;5077885;28;20345;-66
2020/12/31 05:16:36;;;;;;;17.35;12.70;;;3.30;99.90;;;;;;5091769;28;20038;-66
2020/12/31 05:19:20;;;;;;;18.13;13.82;;;3.40;99.90;;;;;;5076667;28;20097;-67
2020/12/31 05:21:45;;;;;;;21.90;13.88;;;3.30;99.90;;;;;;5092079;28;20059;-66
2020/12/31 05:24:13;;;;;;;22.95;15.07;;;3.30;99.90;;;;;;5092016;28;20060;-67
2020/12/31 05:26:38;;;;;;;20.33;14.57;;;3.40;99.90;;;;;;5091583;28;20020;-66
2020/12/31 05:29:05;;;;;;;23.48;15.18;;;3.30;99.90;;;;;;5092020;28;20430;-66
2020/12/31 05:31:50;;;;;;;23.08;15.40;;;3.30;99.90;;;;;;5091475;28;20028;-66
2020/12/31 05:34:30;;;;;;;19.00;14.88;;;3.30;99.90;;;;;;5090740;28;20074;-67
2020/12/31 05:37:13;;;;;;;25.25;15.23;;;3.30;99.90;;;;;;5091990;28;20077;-67
2020/12/31 05:39:57;;;;;;;23.40;14.82;;;3.40;99.90;;;;;;5091016;28;20032;-66
2020/12/31 05:42:23;;;;;;;20.80;14.65;;;3.30;99.90;;;;;;5091347;28;20020;-66
2020/12/31 05:45:09;;;;;;;24.20;15.15;;;3.40;99.90;;;;;;5091361;28;20051;-67
2020/12/31 05:47:43;;;;;;;20.40;14.52;;;3.30;99.90;;;;;;5090524;28;20028;-66
2020/12/31 05:50:17;;;;;;;21.77;13.73;;;3.40;99.90;;;;;;5091161;28;20020;-67
2020/12/31 05:52:43;;;;;;;23.88;15.38;;;3.50;99.90;;;;;;5090999;28;20039;-67
2020/12/31 05:55:09;;;;;;;23.45;14.95;;;3.40;99.90;;;;;;5090727;28;20017;-67
2020/12/31 05:57:43;;;;;;;26.27;15.73;;;3.50;99.90;;;;;;5091096;28;20020;-67
2020/12/31 06:00:12;;;;;;;21.73;13.43;;;3.40;99.90;;;;;;5091073;28;20422;-67
2020/12/31 06:03:01;;;;;;;21.08;14.30;;;3.40;99.90;;;;;;5090530;28;20343;-67
2020/12/31 06:05:29;;;;;;;23.65;14.77;;;3.40;99.90;;;;;;5089492;28;20541;-67
2020/12/31 06:07:57;;;;;;;18.60;13.90;;;3.40;99.90;;;;;;5083754;28;20081;-66
2020/12/31 06:10:26;;;;;;;22.98;14.70;;;3.30;99.90;;;;;;5072983;28;20510;-67
2020/12/31 06:12:56;;;;;;;22.42;14.75;;;3.30;99.90;;;;;;5073924;28;20032;-66
2020/12/31 06:15:26;;;;;;;23.92;14.23;;;3.20;99.90;;;;;;5072442;28;20025;-66
2020/12/31 06:17:52;;;;;;;27.52;14.82;;;3.30;99.90;;;;;;5070085;28;20021;-66
2020/12/31 06:20:23;;;;;;;23.70;15.13;;;3.30;99.90;;;;;;5077609;28;20117;-66
2020/12/31 06:22:59;;;;;;;21.77;14.68;;;3.20;99.90;;;;;;5069682;28;20085;-66
2020/12/31 06:25:37;;;;;;;23.27;14.13;;;3.20;99.90;;;;;;5073494;28;20054;-66
2020/12/31 06:28:15;;;;;;;21.55;14.38;;;3.20;99.90;;;;;;5069934;28;20028;-66
2020/12/31 06:30:46;;;;;;;23.27;14.10;;;3.20;99.90;;;;;;5068583;28;20498;-66
2020/12/31 06:33:30;;;;;;;22.67;14.30;;;3.20;99.90;;;;;;5070019;28;20123;-66
2020/12/31 06:36:00;;;;;;;23.55;13.88;;;3.20;99.90;;;;;;5069335;28;20484;-66
2020/12/31 06:38:28;;;;;;;25.85;15.18;;;3.20;99.90;;;;;;5069668;28;20032;-65
2020/12/31 06:40:53;;;;;;;22.02;13.80;;;3.20;99.90;;;;;;5070471;28;20167;-66
2020/12/31 06:43:28;;;;;;;21.50;13.85;;;3.20;99.90;;;;;;5068983;28;20499;-67
2020/12/31 06:45:53;;;;;;;21.73;13.98;;;3.20;99.90;;;;;;5070208;28;20020;-66
2020/12/31 06:48:25;;;;;;;21.33;14.38;;;3.10;99.90;;;;;;5070254;28;20032;-67
2020/12/31 06:51:02;;;;;;;26.17;14.85;;;3.10;99.90;;;;;;5081126;28;20017;-67
2020/12/31 06:53:45;;;;;;;19.48;13.60;;;3.00;99.90;;;;;;5081827;28;20037;-67
2020/12/31 06:56:12;;;;;;;20.55;12.90;;;3.00;99.90;;;;;;5087772;28;20013;-66
2020/12/31 06:58:41;;;;;;;22.50;14.07;;;3.00;99.90;;;;;;5086259;28;20099;-67
2020/12/31 07:01:24;;;;;;;23.48;15.52;;;3.00;99.90;;;;;;5088494;28;20428;-67
2020/12/31 07:03:51;;;;;;;21.48;14.35;;;3.00;99.90;;;;;;5087866;28;20040;-66
2020/12/31 07:06:22;;;;;;;22.70;15.23;;;3.00;99.90;;;;;;5086415;28;20111;-67
2020/12/31 07:08:59;;;;;;;22.52;14.52;;;3.00;99.90;;;;;;5084675;28;20099;-66
2020/12/31 07:11:35;;;;;;;25.85;14.30;;;3.00;99.90;;;;;;5086221;28;20117;-66
2020/12/31 07:14:17;;;;;;;22.08;14.75;;;2.90;99.90;;;;;;5085722;28;20050;-67
2020/12/31 07:16:55;;;;;;;26.55;14.88;;;2.90;99.90;;;;;;5088357;28;20093;-67
2020/12/31 07:19:41;;;;;;;20.02;14.50;;;2.90;99.90;;;;;;5072184;28;20047;-67
2020/12/31 07:22:10;;;;;;;24.90;14.48;;;2.90;99.90;;;;;;5086890;28;20460;-66
2020/12/31 07:25:04;;;;;;;27.33;15.52;;;2.90;99.90;;;;;;5081523;28;20262;-67
2020/12/31 07:27:37;;;;;;;25.48;15.23;;;2.90;99.90;;;;;;5086183;28;20165;-67
2020/12/31 07:30:10;;;;;;;25.70;15.93;;;2.90;99.90;;;;;;5085267;28;20431;-67
2020/12/31 07:32:57;;;;;;;26.20;16.20;;;2.90;99.90;;;;;;5086117;28;20032;-67
2020/12/31 07:35:33;;;;;;;27.27;16.55;;;2.80;99.90;;;;;;5086490;28;20019;-67
2020/12/31 07:38:01;;;;;;;27.05;16.20;;;2.80;99.90;;;;;;5087358;28;20050;-67
2020/12/31 07:40:32;;;;;;;24.15;15.70;;;2.90;99.90;;;;;;5088342;28;20073;-67
2020/12/31 07:42:58;;;;;;;26.33;15.18;;;2.90;99.90;;;;;;5079256;28;20107;-67
2020/12/31 07:45:25;;;;;;;28.75;16.23;;;2.90;99.90;;;;;;5088911;28;20020;-67
2020/12/31 07:47:52;;;;;;;28.75;17.08;;;2.80;99.90;;;;;;5081273;28;20029;-67
2020/12/31 07:50:18;;;;;;;30.90;16.75;;;2.80;99.90;;;;;;5088817;28;20066;-67
2020/12/31 07:52:44;;;;;;;27.98;17.17;;;2.80;99.90;;;;;;5091436;28;20527;-67
2020/12/31 07:55:09;;;;;;;23.13;15.68;;;2.80;99.90;;;;;;5077261;28;20031;-67
2020/12/31 07:57:38;;;;;;;28.85;16.45;;;2.80;99.90;;;;;;5090307;28;20162;-67
2020/12/31 08:00:04;;;;;;;23.75;15.60;;;2.90;99.90;;;;;;5088304;28;20024;-67
2020/12/31 08:02:30;;;;;;;27.15;15.52;;;2.90;99.90;;;;;;5091439;28;20066;-67
2020/12/31 08:04:56;;;;;;;24.50;14.80;;;2.90;99.90;;;;;;5091870;28;20082;-67
2020/12/31 08:07:22;;;;;;;24.38;16.20;;;3.00;99.90;;;;;;5090985;28;20459;-67
2020/12/31 08:09:49;;;;;;;31.90;17.92;;;3.00;99.90;;;;;;5089394;28;20028;-66
2020/12/31 08:12:15;;;;;;;27.10;16.63;;;3.10;99.90;;;;;;5080484;28;20470;-67
2020/12/31 08:14:42;;;;;;;29.13;16.83;;;3.20;99.90;;;;;;5091009;28;20117;-67
2020/12/31 08:17:09;;;;;;;24.23;15.40;;;3.20;99.90;;;;;;5089865;28;20505;-67
2020/12/31 08:19:35;;;;;;;26.55;15.68;;;3.30;99.90;;;;;;5088423;28;20036;-67
2020/12/31 08:22:24;;;;;;;28.85;17.00;;;3.30;99.90;;;;;;5073116;28;20036;-67
2020/12/31 08:25:10;;;;;;;24.05;15.90;;;3.40;99.90;;;;;;5073486;28;20122;-67
2020/12/31 08:27:40;;;;;;;28.25;16.17;;;3.40;99.90;;;;;;5072931;28;20094;-67
2020/12/31 08:30:10;;;;;;;26.00;16.38;;;3.40;99.90;;;;;;5077320;28;20031;-67
2020/12/31 08:33:00;;;;;;;27.20;15.82;;;3.50;99.90;;;;;;5085528;28;20044;-67
2020/12/31 08:35:37;;;;;;;23.42;15.05;;;3.50;99.90;;;;;;5089492;28;20013;-66
2020/12/31 08:38:12;;;;;;;22.67;15.50;;;3.50;99.90;;;;;;5072862;28;20357;-67
2020/12/31 08:40:51;;;;;;;26.10;15.15;;;3.60;99.90;;;;;;5084738;28;20032;-66
2020/12/31 08:43:21;;;;;;;22.73;14.68;;;3.50;99.90;;;;;;5081815;28;20036;-67
2020/12/31 08:45:48;;;;;;;23.98;14.77;;;3.50;99.90;;;;;;5073116;28;20036;-66
2020/12/31 08:48:21;;;;;;;26.58;14.80;;;3.50;99.90;;;;;;5089568;28;20448;-66
2020/12/31 08:51:14;;;;;;;24.42;15.10;;;3.50;99.90;;;;;;5077371;28;20047;-67
2020/12/31 08:53:56;;;;;;;27.83;16.02;;;3.50;99.90;;;;;;5087245;28;20043;-67
2020/12/31 08:56:32;;;;;;;26.92;15.23;;;3.60;99.90;;;;;;5089474;28;20036;-67
2020/12/31 08:59:08;;;;;;;25.55;16.88;;;3.70;99.90;;;;;;5093593;28;20026;-68
2020/12/31 09:01:34;;;;;;;24.77;15.55;;;3.70;99.90;;;;;;5092914;28;20532;-67
2020/12/31 09:04:06;;;;;;;30.33;15.38;;;3.80;99.90;;;;;;5092485;28;20024;-67
2020/12/31 09:06:32;;;;;;;21.95;15.23;;;3.80;99.90;;;;;;5092701;28;20028;-68
2020/12/31 09:08:58;;;;;;;27.40;16.48;;;3.90;99.90;;;;;;5093511;28;20084;-68
2020/12/31 09:11:26;;;;;;;24.77;16.45;;;3.90;99.90;;;;;;5091983;28;20016;-68
2020/12/31 09:13:51;;;;;;;24.05;16.15;;;3.90;99.90;;;;;;5092999;28;20062;-68
2020/12/31 09:16:17;;;;;;;25.65;17.05;;;4.00;99.90;;;;;;5092969;28;20020;-69
2020/12/31 09:18:44;;;;;;;32.85;16.67;;;4.00;99.90;;;;;;5081933;28;20016;-68
2020/12/31 09:21:11;;;;;;;26.00;16.42;;;4.00;99.90;;;;;;5092882;28;20024;-68
2020/12/31 09:23:37;;;;;;;25.05;15.55;;;4.00;99.90;;;;;;5092753;28;20039;-68
2020/12/31 09:26:03;;;;;;;23.58;15.77;;;4.10;99.90;;;;;;5092188;28;20089;-69
2020/12/31 09:28:30;;;;;;;25.50;16.25;;;4.10;99.90;;;;;;5092380;28;20024;-70
2020/12/31 09:30:56;;;;;;;24.73;16.13;;;4.10;99.90;;;;;;5092464;28;20472;-69
2020/12/31 09:33:23;;;;;;;25.65;16.70;;;4.10;99.90;;;;;;5091356;28;20032;-68
2020/12/31 09:35:48;;;;;;;29.08;18.10;;;4.10;99.90;;;;;;5092402;28;20097;-68
2020/12/31 09:38:18;;;;;;;26.30;16.98;;;4.10;99.90;;;;;;5092405;28;20075;-69
2020/12/31 09:40:44;;;;;;;24.23;16.07;;;4.10;99.90;;;;;;5092740;28;20142;-68
2020/12/31 09:43:11;;;;;;;23.85;16.27;;;4.10;99.90;;;;;;5091487;28;20031;-68
2020/12/31 09:45:38;;;;;;;27.92;16.45;;;4.20;99.90;;;;;;5088555;28;20511;-68
2020/12/31 09:48:05;;;;;;;23.67;15.10;;;4.10;99.90;;;;;;5077207;28;20476;-68
2020/12/31 09:50:31;;;;;;;22.15;15.80;;;4.10;99.90;;;;;;5071605;28;20043;-68
2020/12/31 09:52:57;;;;;;;26.52;17.65;;;4.20;99.90;;;;;;5071061;28;20468;-68
2020/12/31 09:55:23;;;;;;;31.08;18.42;;;4.20;99.90;;;;;;5081795;28;20020;-68
2020/12/31 09:57:49;;;;;;;30.83;18.50;;;4.30;99.90;;;;;;5086948;28;20073;-67
2020/12/31 10:00:15;;;;;;;25.83;17.13;;;4.30;99.90;;;;;;5073647;28;20281;-66
2020/12/31 10:02:41;;;;;;;27.05;17.58;;;4.30;99.90;;;;;;5071628;28;20025;-67
2020/12/31 10:05:06;;;;;;;30.30;17.70;;;4.40;99.90;;;;;;5085811;28;20020;-67
2020/12/31 10:07:32;;;;;;;26.73;17.20;;;4.40;99.90;;;;;;5090570;28;20950;-67
2020/12/31 10:09:59;;;;;;;30.63;17.35;;;4.40;99.90;;;;;;5091591;28;20459;-67
2020/12/31 10:12:24;;;;;;;26.25;17.40;;;4.40;99.90;;;;;;5090594;28;20077;-67
2020/12/31 10:14:51;;;;;;;29.73;18.77;;;4.40;99.90;;;;;;5087540;28;20052;-68
2020/12/31 10:17:16;;;;;;;35.92;18.55;;;4.40;99.90;;;;;;5088264;28;20020;-67
2020/12/31 10:19:42;;;;;;;25.95;17.55;;;4.40;99.90;;;;;;5086450;28;20036;-67
2020/12/31 10:22:08;;;;;;;31.30;18.73;;;4.40;99.90;;;;;;5090370;28;20020;-67
2020/12/31 10:24:34;;;;;;;29.90;18.58;;;4.50;99.90;;;;;;5087362;28;20149;-67
2020/12/31 10:26:59;;;;;;;29.05;18.77;;;4.50;99.90;;;;;;5087932;28;20028;-67
2020/12/31 10:29:25;;;;;;;33.13;19.00;;;4.50;99.90;;;;;;5086466;28;20086;-68
2020/12/31 10:31:52;;;;;;;32.40;18.80;;;4.60;99.90;;;;;;5077528;28;20028;-68
2020/12/31 10:34:18;;;;;;;29.80;18.17;;;4.50;99.90;;;;;;5089684;28;20020;-67
2020/12/31 10:36:55;;;;;;;27.80;18.42;;;4.60;99.90;;;;;;5070736;28;20536;-68
2020/12/31 10:39:22;;;;;;;53.03;31.00;;;4.50;99.90;;;;;;5079273;28;20020;-68
2020/12/31 10:41:49;;;;;;;50.13;28.60;;;4.60;99.90;;;;;;5089850;28;20026;-68
2020/12/31 10:44:16;;;;;;;107.00;55.58;;;4.50;99.90;;;;;;5086778;28;20598;-68
2020/12/31 10:46:42;;;;;;;370.15;247.07;;;4.50;99.90;;;;;;5086438;28;20058;-68
2020/12/31 10:49:07;;;;;;;320.00;222.65;;;4.50;99.90;;;;;;5089970;28;20016;-68
2020/12/31 10:51:38;;;;;;;321.90;198.52;;;4.50;99.90;;;;;;5087223;28;20028;-68
2020/12/31 10:54:07;;;;;;;203.00;125.88;;;4.50;99.90;;;;;;5089243;28;20024;-68
2020/12/31 10:56:35;;;;;;;111.57;71.15;;;4.50;99.90;;;;;;5088254;28;20480;-68
2020/12/31 10:59:00;;;;;;;87.68;52.88;;;4.50;99.90;;;;;;5090344;28;20486;-68
2020/12/31 11:01:26;;;;;;;65.95;38.20;;;4.50;99.90;;;;;;5086233;28;20020;-68
2020/12/31 11:03:51;;;;;;;258.10;147.60;;;4.60;99.90;;;;;;5089468;28;20031;-68
2020/12/31 11:06:21;;;;;;;215.85;129.57;;;4.60;99.90;;;;;;5084536;28;20175;-68
2020/12/31 11:08:47;;;;;;;153.38;93.93;;;4.60;99.90;;;;;;5085741;28;20035;-68
2020/12/31 11:11:33;;;;;;;97.60;59.33;;;4.70;99.90;;;;;;5087183;28;20360;-68
2020/12/31 11:13:59;;;;;;;56.80;35.72;;;4.80;99.90;;;;;;5070822;28;20080;-68
2020/12/31 11:16:25;;;;;;;51.53;29.42;;;4.80;99.90;;;;;;5070535;28;20080;-68
2020/12/31 11:18:50;;;;;;;39.10;24.00;;;4.90;99.90;;;;;;5084208;28;20028;-68
2020/12/31 11:21:19;;;;;;;38.60;22.55;;;4.90;99.90;;;;;;5094708;28;20422;-68
2020/12/31 11:23:44;;;;;;;32.92;21.33;;;5.00;99.90;;;;;;5085655;28;20109;-68
2020/12/31 11:26:18;;;;;;;35.30;20.90;;;5.00;99.90;;;;;;5089439;28;20058;-68
2020/12/31 11:28:46;;;;;;;32.28;19.90;;;5.00;99.90;;;;;;5095139;28;20519;-68
2020/12/31 11:31:12;;;;;;;33.00;21.00;;;5.00;99.90;;;;;;5093871;28;20415;-68
2020/12/31 11:33:39;;;;;;;29.63;19.85;;;5.00;99.90;;;;;;5094537;28;20028;-69
2020/12/31 11:36:08;;;;;;;34.05;21.15;;;5.00;99.90;;;;;;5094207;28;20119;-67
2020/12/31 11:38:34;;;;;;;31.42;19.25;;;5.00;99.90;;;;;;5093390;28;20016;-68
2020/12/31 11:41:00;;;;;;;34.20;21.73;;;5.00;99.90;;;;;;5095097;28;20028;-68
2020/12/31 11:43:26;;;;;;;31.58;20.52;;;5.00;99.90;;;;;;5080450;28;20027;-68
2020/12/31 11:45:51;;;;;;;28.88;18.67;;;5.00;99.90;;;;;;5093594;28;20020;-68
2020/12/31 11:48:17;;;;;;;34.17;20.13;;;5.00;99.90;;;;;;5094925;28;20031;-67
2020/12/31 11:50:43;;;;;;;29.27;19.27;;;5.00;99.90;;;;;;5075338;28;20541;-68
2020/12/31 11:53:08;;;;;;;33.95;21.65;;;5.00;99.90;;;;;;5075643;28;20028;-68
2020/12/31 11:55:34;;;;;;;34.15;21.27;;;5.00;99.90;;;;;;5077297;28;20077;-68
2020/12/31 11:57:59;;;;;;;31.45;19.15;;;4.90;99.90;;;;;;5074029;28;20025;-67
2020/12/31 12:00:25;;;;;;;28.13;17.50;;;4.90;99.90;;;;;;5072422;28;20046;-68
2020/12/31 12:02:50;;;;;;;33.05;19.05;;;4.90;99.90;;;;;;5074111;28;20025;-68
2020/12/31 12:05:16;;;;;;;32.13;19.48;;;4.80;99.90;;;;;;5074262;28;20574;-66
2020/12/31 12:07:41;;;;;;;27.30;18.73;;;4.80;99.90;;;;;;5076174;28;20411;-67
2020/12/31 12:10:08;;;;;;;30.90;18.90;;;4.80;99.90;;;;;;5073757;28;20021;-67
2020/12/31 12:12:33;;;;;;;33.92;19.50;;;4.90;99.90;;;;;;5073348;28;20036;-67
2020/12/31 12:14:59;;;;;;;29.38;18.83;;;4.90;99.90;;;;;;5072776;28;20119;-67
2020/12/31 12:17:24;;;;;;;31.75;19.73;;;4.90;99.90;;;;;;5073654;28;20103;-67
2020/12/31 12:19:50;;;;;;;32.40;19.98;;;4.90;99.90;;;;;;5080732;28;20027;-67
2020/12/31 12:22:15;;;;;;;36.08;18.60;;;4.90;99.90;;;;;;5093051;28;20471;-67
2020/12/31 12:24:41;;;;;;;29.10;18.70;;;4.90;99.90;;;;;;5093963;28;20453;-66
2020/12/31 12:27:07;;;;;;;26.58;18.20;;;5.00;99.90;;;;;;5093622;28;20024;-66
2020/12/31 12:29:33;;;;;;;37.13;19.77;;;5.00;99.90;;;;;;5092431;28;20450;-67
2020/12/31 12:31:59;;;;;;;39.15;20.08;;;5.10;99.90;;;;;;5093791;28;20460;-67
2020/12/31 12:34:25;;;;;;;28.52;18.27;;;5.00;99.90;;;;;;5092588;28;20043;-67
2020/12/31 12:36:50;;;;;;;28.48;19.13;;;5.00;99.90;;;;;;5093805;28;20111;-67
2020/12/31 12:39:17;;;;;;;28.63;17.63;;;5.10;99.90;;;;;;5093799;28;20115;-67
2020/12/31 12:41:43;;;;;;;32.85;19.20;;;5.00;99.90;;;;;;5093144;28;20047;-67
2020/12/31 12:44:09;;;;;;;27.50;17.73;;;5.00;99.90;;;;;;5093568;28;20093;-67
2020/12/31 12:46:34;;;;;;;30.52;18.25;;;5.00;99.90;;;;;;5093341;28;20032;-67